sensor_id;sensor_type;location;lat;lon;timestamp;P1;durP1;ratioP1;P2;durP2;ratioP2
70838;SDS011;58464;52.298;4.852;2023-07-16T00:02:21;15.65;;;3.30;;
70838;SDS011;58464;52.298;4.852;2023-07-16T00:04:46;17.27;;;3.67;;
70838;SDS011;58464;52.298;4.852;2023-07-16T00:07:12;11.60;;;2.92;;
70838;SDS011;58464;52.298;4.852;2023-07-16T00:09:39;14.27;;;3.40;;
70838;SDS011;58464;52.298;4.852;2023-07-16T00:12:04;12.52;;;2.90;;
70838;SDS011;58464;52.298;4.852;2023-07-16T00:14:30;14.88;;;2.85;;
70838;SDS011;58464;52.298;4.852;2023-07-16T00:16:55;14.23;;;2.93;;
70838;SDS011;58464;52.298;4.852;2023-07-16T00:19:20;19.93;;;3.50;;
70838;SDS011;58464;52.298;4.852;2023-07-16T00:21:46;9.23;;;2.97;;
70838;SDS011;58464;52.298;4.852;2023-07-16T00:24:11;14.90;;;2.43;;
70838;SDS011;58464;52.298;4.852;2023-07-16T00:26:36;11.60;;;2.83;;
70838;SDS011;58464;52.298;4.852;2023-07-16T00:29:02;11.73;;;2.30;;
70838;SDS011;58464;52.298;4.852;2023-07-16T00:31:27;16.00;;;3.15;;
70838;SDS011;58464;52.298;4.852;2023-07-16T00:33:52;12.30;;;2.85;;
70838;SDS011;58464;52.298;4.852;2023-07-16T00:36:17;10.85;;;2.47;;
70838;SDS011;58464;52.298;4.852;2023-07-16T00:38:43;11.53;;;2.93;;
70838;SDS011;58464;52.298;4.852;2023-07-16T00:41:10;10.77;;;2.90;;
70838;SDS011;58464;52.298;4.852;2023-07-16T00:43:35;10.57;;;2.43;;
70838;SDS011;58464;52.298;4.852;2023-07-16T00:46:01;12.15;;;3.60;;
70838;SDS011;58464;52.298;4.852;2023-07-16T00:48:28;9.90;;;2.78;;
70838;SDS011;58464;52.298;4.852;2023-07-16T00:50:53;12.98;;;3.40;;
70838;SDS011;58464;52.298;4.852;2023-07-16T00:53:19;11.27;;;3.00;;
70838;SDS011;58464;52.298;4.852;2023-07-16T00:55:45;11.18;;;3.10;;
70838;SDS011;58464;52.298;4.852;2023-07-16T00:58:10;12.45;;;3.55;;
70838;SDS011;58464;52.298;4.852;2023-07-16T01:00:36;11.27;;;3.35;;
70838;SDS011;58464;52.298;4.852;2023-07-16T01:03:02;13.68;;;3.80;;
70838;SDS011;58464;52.298;4.852;2023-07-16T01:05:30;16.35;;;3.28;;
70838;SDS011;58464;52.298;4.852;2023-07-16T01:07:59;10.05;;;3.80;;
70838;SDS011;58464;52.298;4.852;2023-07-16T01:10:27;12.80;;;3.65;;
70838;SDS011;58464;52.298;4.852;2023-07-16T01:12:54;11.05;;;3.28;;
70838;SDS011;58464;52.298;4.852;2023-07-16T01:15:20;14.38;;;3.63;;
70838;SDS011;58464;52.298;4.852;2023-07-16T01:17:45;12.20;;;3.85;;
70838;SDS011;58464;52.298;4.852;2023-07-16T01:20:10;12.90;;;3.47;;
70838;SDS011;58464;52.298;4.852;2023-07-16T01:23:26;12.73;;;3.72;;
70838;SDS011;58464;52.298;4.852;2023-07-16T01:25:26;13.73;;;4.05;;
70838;SDS011;58464;52.298;4.852;2023-07-16T01:27:59;19.25;;;4.57;;
70838;SDS011;58464;52.298;4.852;2023-07-16T01:30:28;14.00;;;3.67;;
70838;SDS011;58464;52.298;4.852;2023-07-16T01:32:54;17.40;;;4.18;;
70838;SDS011;58464;52.298;4.852;2023-07-16T01:35:20;10.98;;;3.53;;
70838;SDS011;58464;52.298;4.852;2023-07-16T01:37:46;18.20;;;4.05;;
70838;SDS011;58464;52.298;4.852;2023-07-16T01:40:11;11.80;;;4.13;;
70838;SDS011;58464;52.298;4.852;2023-07-16T01:42:36;12.55;;;3.63;;
70838;SDS011;58464;52.298;4.852;2023-07-16T01:45:02;10.73;;;3.50;;
70838;SDS011;58464;52.298;4.852;2023-07-16T01:49:59;14.48;;;3.72;;
70838;SDS011;58464;52.298;4.852;2023-07-16T01:52:24;18.30;;;4.63;;
70838;SDS011;58464;52.298;4.852;2023-07-16T01:54:49;12.20;;;4.10;;
70838;SDS011;58464;52.298;4.852;2023-07-16T01:57:15;16.80;;;4.00;;
70838;SDS011;58464;52.298;4.852;2023-07-16T01:59:41;16.30;;;4.03;;
70838;SDS011;58464;52.298;4.852;2023-07-16T02:02:06;17.30;;;4.75;;
70838;SDS011;58464;52.298;4.852;2023-07-16T02:04:32;17.73;;;4.13;;
70838;SDS011;58464;52.298;4.852;2023-07-16T02:06:57;13.83;;;4.50;;
70838;SDS011;58464;52.298;4.852;2023-07-16T02:09:22;11.80;;;4.22;;
70838;SDS011;58464;52.298;4.852;2023-07-16T02:11:48;14.50;;;4.32;;
70838;SDS011;58464;52.298;4.852;2023-07-16T02:14:13;13.48;;;4.72;;
70838;SDS011;58464;52.298;4.852;2023-07-16T02:16:39;19.20;;;4.65;;
70838;SDS011;58464;52.298;4.852;2023-07-16T02:19:05;14.80;;;4.93;;
70838;SDS011;58464;52.298;4.852;2023-07-16T02:21:30;14.40;;;4.93;;
70838;SDS011;58464;52.298;4.852;2023-07-16T02:23:55;10.18;;;4.35;;
70838;SDS011;58464;52.298;4.852;2023-07-16T02:26:20;20.30;;;4.47;;
70838;SDS011;58464;52.298;4.852;2023-07-16T02:28:46;20.92;;;4.55;;
70838;SDS011;58464;52.298;4.852;2023-07-16T02:31:11;14.48;;;5.80;;
70838;SDS011;58464;52.298;4.852;2023-07-16T02:33:37;17.20;;;4.85;;
70838;SDS011;58464;52.298;4.852;2023-07-16T02:36:02;16.25;;;4.93;;
70838;SDS011;58464;52.298;4.852;2023-07-16T02:38:28;13.60;;;4.97;;
70838;SDS011;58464;52.298;4.852;2023-07-16T02:40:53;16.97;;;5.67;;
70838;SDS011;58464;52.298;4.852;2023-07-16T02:43:18;15.13;;;5.03;;
70838;SDS011;58464;52.298;4.852;2023-07-16T02:45:44;14.75;;;5.00;;
70838;SDS011;58464;52.298;4.852;2023-07-16T02:48:09;11.88;;;4.60;;
70838;SDS011;58464;52.298;4.852;2023-07-16T02:50:35;18.43;;;5.33;;
70838;SDS011;58464;52.298;4.852;2023-07-16T02:53:01;11.75;;;3.75;;
70838;SDS011;58464;52.298;4.852;2023-07-16T02:55:26;14.00;;;5.70;;
70838;SDS011;58464;52.298;4.852;2023-07-16T02:57:51;14.05;;;5.63;;
70838;SDS011;58464;52.298;4.852;2023-07-16T03:00:17;17.80;;;5.53;;
70838;SDS011;58464;52.298;4.852;2023-07-16T03:02:42;16.73;;;4.57;;
70838;SDS011;58464;52.298;4.852;2023-07-16T03:05:07;15.30;;;5.10;;
70838;SDS011;58464;52.298;4.852;2023-07-16T03:07:33;18.42;;;5.05;;
70838;SDS011;58464;52.298;4.852;2023-07-16T03:09:58;16.80;;;5.33;;
70838;SDS011;58464;52.298;4.852;2023-07-16T03:12:23;17.33;;;4.88;;
70838;SDS011;58464;52.298;4.852;2023-07-16T03:14:49;9.33;;;4.50;;
70838;SDS011;58464;52.298;4.852;2023-07-16T03:17:15;17.73;;;5.75;;
70838;SDS011;58464;52.298;4.852;2023-07-16T03:19:41;14.45;;;5.20;;
70838;SDS011;58464;52.298;4.852;2023-07-16T03:22:06;14.82;;;4.82;;
70838;SDS011;58464;52.298;4.852;2023-07-16T03:24:32;20.38;;;5.78;;
70838;SDS011;58464;52.298;4.852;2023-07-16T03:26:57;26.17;;;6.10;;
70838;SDS011;58464;52.298;4.852;2023-07-16T03:29:22;23.73;;;6.43;;
70838;SDS011;58464;52.298;4.852;2023-07-16T03:31:47;17.27;;;6.20;;
70838;SDS011;58464;52.298;4.852;2023-07-16T03:34:13;17.25;;;5.53;;
70838;SDS011;58464;52.298;4.852;2023-07-16T03:36:38;11.43;;;4.97;;
70838;SDS011;58464;52.298;4.852;2023-07-16T03:39:03;15.43;;;5.00;;
70838;SDS011;58464;52.298;4.852;2023-07-16T03:41:28;17.95;;;4.53;;
70838;SDS011;58464;52.298;4.852;2023-07-16T03:43:54;17.63;;;5.53;;
70838;SDS011;58464;52.298;4.852;2023-07-16T03:46:19;21.20;;;6.32;;
70838;SDS011;58464;52.298;4.852;2023-07-16T03:48:45;13.98;;;5.05;;
70838;SDS011;58464;52.298;4.852;2023-07-16T03:51:10;14.52;;;5.15;;
70838;SDS011;58464;52.298;4.852;2023-07-16T03:53:35;12.43;;;4.25;;
70838;SDS011;58464;52.298;4.852;2023-07-16T03:56:01;17.55;;;4.32;;
70838;SDS011;58464;52.298;4.852;2023-07-16T03:58:26;17.73;;;5.43;;
70838;SDS011;58464;52.298;4.852;2023-07-16T04:00:54;14.60;;;4.28;;
70838;SDS011;58464;52.298;4.852;2023-07-16T04:03:19;12.27;;;4.72;;
70838;SDS011;58464;52.298;4.852;2023-07-16T04:05:44;15.20;;;4.47;;
70838;SDS011;58464;52.298;4.852;2023-07-16T04:08:10;12.97;;;4.37;;
70838;SDS011;58464;52.298;4.852;2023-07-16T04:10:35;13.25;;;3.83;;
70838;SDS011;58464;52.298;4.852;2023-07-16T04:13:00;12.52;;;4.40;;
70838;SDS011;58464;52.298;4.852;2023-07-16T04:15:26;19.30;;;4.10;;
70838;SDS011;58464;52.298;4.852;2023-07-16T04:17:51;8.70;;;3.50;;
70838;SDS011;58464;52.298;4.852;2023-07-16T04:20:16;14.85;;;3.90;;
70838;SDS011;58464;52.298;4.852;2023-07-16T04:22:42;13.65;;;4.50;;
70838;SDS011;58464;52.298;4.852;2023-07-16T04:25:07;10.68;;;4.00;;
70838;SDS011;58464;52.298;4.852;2023-07-16T04:27:33;18.08;;;4.63;;
70838;SDS011;58464;52.298;4.852;2023-07-16T04:29:58;13.48;;;4.75;;
70838;SDS011;58464;52.298;4.852;2023-07-16T04:32:23;14.90;;;3.93;;
70838;SDS011;58464;52.298;4.852;2023-07-16T04:34:49;15.23;;;4.70;;
70838;SDS011;58464;52.298;4.852;2023-07-16T04:37:14;20.33;;;5.03;;
70838;SDS011;58464;52.298;4.852;2023-07-16T04:39:39;17.45;;;4.70;;
70838;SDS011;58464;52.298;4.852;2023-07-16T04:42:05;12.53;;;4.20;;
70838;SDS011;58464;52.298;4.852;2023-07-16T04:44:31;12.50;;;4.53;;
70838;SDS011;58464;52.298;4.852;2023-07-16T04:46:59;18.88;;;4.53;;
70838;SDS011;58464;52.298;4.852;2023-07-16T04:49:24;7.00;;;3.97;;
70838;SDS011;58464;52.298;4.852;2023-07-16T04:51:49;18.03;;;4.43;;
70838;SDS011;58464;52.298;4.852;2023-07-16T04:54:14;19.17;;;4.78;;
70838;SDS011;58464;52.298;4.852;2023-07-16T04:56:40;13.02;;;4.00;;
70838;SDS011;58464;52.298;4.852;2023-07-16T04:59:05;16.42;;;4.85;;
70838;SDS011;58464;52.298;4.852;2023-07-16T05:01:30;11.95;;;4.63;;
70838;SDS011;58464;52.298;4.852;2023-07-16T05:03:56;13.25;;;4.82;;
70838;SDS011;58464;52.298;4.852;2023-07-16T05:06:21;12.65;;;4.45;;
70838;SDS011;58464;52.298;4.852;2023-07-16T05:08:46;13.38;;;4.50;;
70838;SDS011;58464;52.298;4.852;2023-07-16T05:11:12;12.25;;;4.88;;
70838;SDS011;58464;52.298;4.852;2023-07-16T05:13:37;16.50;;;5.15;;
70838;SDS011;58464;52.298;4.852;2023-07-16T05:16:03;18.67;;;5.47;;
70838;SDS011;58464;52.298;4.852;2023-07-16T05:18:28;15.38;;;5.00;;
70838;SDS011;58464;52.298;4.852;2023-07-16T05:20:53;14.20;;;5.75;;
70838;SDS011;58464;52.298;4.852;2023-07-16T05:23:19;10.93;;;3.90;;
70838;SDS011;58464;52.298;4.852;2023-07-16T05:25:48;14.38;;;4.88;;
70838;SDS011;58464;52.298;4.852;2023-07-16T05:28:13;16.75;;;5.38;;
70838;SDS011;58464;52.298;4.852;2023-07-16T05:30:39;17.70;;;4.97;;
70838;SDS011;58464;52.298;4.852;2023-07-16T05:33:04;15.37;;;4.13;;
70838;SDS011;58464;52.298;4.852;2023-07-16T05:35:29;12.33;;;4.00;;
70838;SDS011;58464;52.298;4.852;2023-07-16T05:37:55;14.88;;;4.40;;
70838;SDS011;58464;52.298;4.852;2023-07-16T05:40:20;14.98;;;3.53;;
70838;SDS011;58464;52.298;4.852;2023-07-16T05:42:45;8.65;;;4.07;;
70838;SDS011;58464;52.298;4.852;2023-07-16T05:45:10;12.23;;;4.40;;
70838;SDS011;58464;52.298;4.852;2023-07-16T05:47:36;10.70;;;4.20;;
70838;SDS011;58464;52.298;4.852;2023-07-16T05:50:01;10.47;;;4.47;;
70838;SDS011;58464;52.298;4.852;2023-07-16T05:52:26;10.82;;;3.63;;
70838;SDS011;58464;52.298;4.852;2023-07-16T05:54:52;12.75;;;4.00;;
70838;SDS011;58464;52.298;4.852;2023-07-16T05:57:17;9.97;;;4.40;;
70838;SDS011;58464;52.298;4.852;2023-07-16T05:59:42;11.73;;;3.95;;
70838;SDS011;58464;52.298;4.852;2023-07-16T06:02:07;9.10;;;3.97;;
70838;SDS011;58464;52.298;4.852;2023-07-16T06:04:33;7.57;;;3.45;;
70838;SDS011;58464;52.298;4.852;2023-07-16T06:06:58;13.80;;;4.40;;
70838;SDS011;58464;52.298;4.852;2023-07-16T06:09:23;14.10;;;4.95;;
70838;SDS011;58464;52.298;4.852;2023-07-16T06:11:49;9.50;;;3.60;;
70838;SDS011;58464;52.298;4.852;2023-07-16T06:14:14;9.90;;;3.63;;
70838;SDS011;58464;52.298;4.852;2023-07-16T06:16:39;12.48;;;4.10;;
70838;SDS011;58464;52.298;4.852;2023-07-16T06:19:05;15.90;;;4.83;;
70838;SDS011;58464;52.298;4.852;2023-07-16T06:21:30;13.70;;;4.35;;
70838;SDS011;58464;52.298;4.852;2023-07-16T06:23:55;9.67;;;3.93;;
70838;SDS011;58464;52.298;4.852;2023-07-16T06:26:20;13.93;;;4.13;;
70838;SDS011;58464;52.298;4.852;2023-07-16T06:28:46;12.57;;;3.83;;
70838;SDS011;58464;52.298;4.852;2023-07-16T06:31:14;12.23;;;4.93;;
70838;SDS011;58464;52.298;4.852;2023-07-16T06:33:39;17.25;;;4.85;;
70838;SDS011;58464;52.298;4.852;2023-07-16T06:36:05;13.00;;;4.78;;
70838;SDS011;58464;52.298;4.852;2023-07-16T06:38:30;12.77;;;4.50;;
70838;SDS011;58464;52.298;4.852;2023-07-16T06:40:55;19.38;;;4.63;;
70838;SDS011;58464;52.298;4.852;2023-07-16T06:43:21;13.73;;;4.90;;
70838;SDS011;58464;52.298;4.852;2023-07-16T06:45:48;17.33;;;4.75;;
70838;SDS011;58464;52.298;4.852;2023-07-16T06:48:13;14.10;;;4.18;;
70838;SDS011;58464;52.298;4.852;2023-07-16T06:50:39;12.60;;;4.72;;
70838;SDS011;58464;52.298;4.852;2023-07-16T06:53:04;13.13;;;4.17;;
70838;SDS011;58464;52.298;4.852;2023-07-16T06:55:29;9.87;;;4.33;;
70838;SDS011;58464;52.298;4.852;2023-07-16T06:57:54;9.13;;;3.80;;
70838;SDS011;58464;52.298;4.852;2023-07-16T07:00:20;14.52;;;5.03;;
70838;SDS011;58464;52.298;4.852;2023-07-16T07:02:45;11.05;;;4.72;;
70838;SDS011;58464;52.298;4.852;2023-07-16T07:05:10;17.23;;;5.40;;
70838;SDS011;58464;52.298;4.852;2023-07-16T07:07:37;12.43;;;4.63;;
70838;SDS011;58464;52.298;4.852;2023-07-16T07:10:02;20.88;;;4.35;;
70838;SDS011;58464;52.298;4.852;2023-07-16T07:12:27;12.00;;;4.25;;
70838;SDS011;58464;52.298;4.852;2023-07-16T07:14:53;9.13;;;3.97;;
70838;SDS011;58464;52.298;4.852;2023-07-16T07:17:18;13.88;;;5.28;;
70838;SDS011;58464;52.298;4.852;2023-07-16T07:19:43;10.00;;;3.37;;
70838;SDS011;58464;52.298;4.852;2023-07-16T07:22:09;16.20;;;4.25;;
70838;SDS011;58464;52.298;4.852;2023-07-16T07:24:40;16.05;;;4.00;;
70838;SDS011;58464;52.298;4.852;2023-07-16T07:27:05;17.48;;;5.60;;
70838;SDS011;58464;52.298;4.852;2023-07-16T07:29:31;12.32;;;4.70;;
70838;SDS011;58464;52.298;4.852;2023-07-16T07:31:56;13.13;;;3.70;;
70838;SDS011;58464;52.298;4.852;2023-07-16T07:34:21;14.50;;;3.77;;
70838;SDS011;58464;52.298;4.852;2023-07-16T07:36:46;13.67;;;3.50;;
70838;SDS011;58464;52.298;4.852;2023-07-16T07:39:12;7.93;;;3.43;;
70838;SDS011;58464;52.298;4.852;2023-07-16T07:41:38;9.48;;;3.58;;
70838;SDS011;58464;52.298;4.852;2023-07-16T07:44:03;12.50;;;4.57;;
70838;SDS011;58464;52.298;4.852;2023-07-16T07:46:29;16.67;;;4.67;;
70838;SDS011;58464;52.298;4.852;2023-07-16T07:48:54;11.68;;;4.28;;
70838;SDS011;58464;52.298;4.852;2023-07-16T07:51:19;8.40;;;3.60;;
70838;SDS011;58464;52.298;4.852;2023-07-16T07:53:45;12.65;;;4.25;;
70838;SDS011;58464;52.298;4.852;2023-07-16T07:56:10;10.68;;;4.10;;
70838;SDS011;58464;52.298;4.852;2023-07-16T07:58:36;12.20;;;3.70;;
70838;SDS011;58464;52.298;4.852;2023-07-16T08:01:05;11.82;;;4.22;;
70838;SDS011;58464;52.298;4.852;2023-07-16T08:03:31;18.98;;;4.70;;
70838;SDS011;58464;52.298;4.852;2023-07-16T08:05:56;22.02;;;4.93;;
70838;SDS011;58464;52.298;4.852;2023-07-16T08:08:21;13.83;;;4.47;;
70838;SDS011;58464;52.298;4.852;2023-07-16T08:10:46;16.67;;;4.50;;
70838;SDS011;58464;52.298;4.852;2023-07-16T08:13:12;12.38;;;4.63;;
70838;SDS011;58464;52.298;4.852;2023-07-16T08:15:38;8.75;;;4.07;;
70838;SDS011;58464;52.298;4.852;2023-07-16T08:18:03;23.60;;;5.32;;
70838;SDS011;58464;52.298;4.852;2023-07-16T08:20:28;13.30;;;4.10;;
70838;SDS011;58464;52.298;4.852;2023-07-16T08:22:54;13.90;;;4.93;;
70838;SDS011;58464;52.298;4.852;2023-07-16T08:25:19;13.18;;;3.97;;
70838;SDS011;58464;52.298;4.852;2023-07-16T08:27:45;13.02;;;4.45;;
70838;SDS011;58464;52.298;4.852;2023-07-16T08:30:10;11.40;;;4.07;;
70838;SDS011;58464;52.298;4.852;2023-07-16T08:32:35;11.13;;;4.32;;
70838;SDS011;58464;52.298;4.852;2023-07-16T08:35:01;11.73;;;4.47;;
70838;SDS011;58464;52.298;4.852;2023-07-16T08:37:26;18.15;;;5.35;;
70838;SDS011;58464;52.298;4.852;2023-07-16T08:39:52;11.90;;;3.83;;
70838;SDS011;58464;52.298;4.852;2023-07-16T08:42:18;10.18;;;3.97;;
70838;SDS011;58464;52.298;4.852;2023-07-16T08:44:44;10.02;;;4.22;;
70838;SDS011;58464;52.298;4.852;2023-07-16T08:47:09;10.60;;;3.65;;
70838;SDS011;58464;52.298;4.852;2023-07-16T08:49:35;11.73;;;4.18;;
70838;SDS011;58464;52.298;4.852;2023-07-16T08:52:01;11.63;;;4.97;;
70838;SDS011;58464;52.298;4.852;2023-07-16T08:54:27;11.07;;;3.83;;
70838;SDS011;58464;52.298;4.852;2023-07-16T08:56:52;11.27;;;3.95;;
70838;SDS011;58464;52.298;4.852;2023-07-16T08:59:18;15.30;;;4.17;;
70838;SDS011;58464;52.298;4.852;2023-07-16T09:01:43;13.07;;;3.90;;
70838;SDS011;58464;52.298;4.852;2023-07-16T09:04:08;13.27;;;4.05;;
70838;SDS011;58464;52.298;4.852;2023-07-16T09:06:33;8.97;;;3.13;;
70838;SDS011;58464;52.298;4.852;2023-07-16T09:09:00;10.07;;;3.15;;
70838;SDS011;58464;52.298;4.852;2023-07-16T09:11:26;12.30;;;3.85;;
70838;SDS011;58464;52.298;4.852;2023-07-16T09:13:52;20.95;;;4.20;;
70838;SDS011;58464;52.298;4.852;2023-07-16T09:16:18;12.07;;;4.45;;
70838;SDS011;58464;52.298;4.852;2023-07-16T09:18:43;11.52;;;3.50;;
70838;SDS011;58464;52.298;4.852;2023-07-16T09:21:09;12.13;;;3.83;;
70838;SDS011;58464;52.298;4.852;2023-07-16T09:23:34;12.93;;;3.83;;
70838;SDS011;58464;52.298;4.852;2023-07-16T09:26:00;12.93;;;4.43;;
70838;SDS011;58464;52.298;4.852;2023-07-16T09:28:25;12.23;;;4.47;;
70838;SDS011;58464;52.298;4.852;2023-07-16T09:30:51;11.07;;;4.32;;
70838;SDS011;58464;52.298;4.852;2023-07-16T09:33:17;13.10;;;4.18;;
70838;SDS011;58464;52.298;4.852;2023-07-16T09:35:43;15.35;;;4.28;;
70838;SDS011;58464;52.298;4.852;2023-07-16T09:38:08;11.95;;;4.75;;
70838;SDS011;58464;52.298;4.852;2023-07-16T09:40:35;11.50;;;4.60;;
70838;SDS011;58464;52.298;4.852;2023-07-16T09:43:00;16.60;;;4.55;;
70838;SDS011;58464;52.298;4.852;2023-07-16T09:45:27;9.68;;;3.88;;
70838;SDS011;58464;52.298;4.852;2023-07-16T09:47:53;11.10;;;3.40;;
70838;SDS011;58464;52.298;4.852;2023-07-16T09:50:18;10.55;;;4.55;;
70838;SDS011;58464;52.298;4.852;2023-07-16T09:52:43;11.90;;;4.20;;
70838;SDS011;58464;52.298;4.852;2023-07-16T09:55:09;8.63;;;3.97;;
70838;SDS011;58464;52.298;4.852;2023-07-16T09:57:35;17.45;;;3.83;;
70838;SDS011;58464;52.298;4.852;2023-07-16T10:00:03;15.73;;;3.67;;
70838;SDS011;58464;52.298;4.852;2023-07-16T10:02:34;16.73;;;4.05;;
70838;SDS011;58464;52.298;4.852;2023-07-16T10:05:46;14.80;;;3.83;;
70838;SDS011;58464;52.298;4.852;2023-07-16T10:07:58;16.85;;;4.30;;
70838;SDS011;58464;52.298;4.852;2023-07-16T10:10:37;10.68;;;3.83;;
70838;SDS011;58464;52.298;4.852;2023-07-16T10:13:04;10.60;;;3.72;;
70838;SDS011;58464;52.298;4.852;2023-07-16T10:15:30;19.60;;;3.95;;
70838;SDS011;58464;52.298;4.852;2023-07-16T10:17:56;13.05;;;4.60;;
70838;SDS011;58464;52.298;4.852;2023-07-16T10:20:31;12.77;;;3.67;;
70838;SDS011;58464;52.298;4.852;2023-07-16T10:22:57;14.10;;;4.55;;
70838;SDS011;58464;52.298;4.852;2023-07-16T10:25:24;16.88;;;4.40;;
70838;SDS011;58464;52.298;4.852;2023-07-16T10:27:50;9.43;;;3.92;;
70838;SDS011;58464;52.298;4.852;2023-07-16T10:30:16;13.63;;;4.38;;
70838;SDS011;58464;52.298;4.852;2023-07-16T10:32:42;19.98;;;4.80;;
70838;SDS011;58464;52.298;4.852;2023-07-16T10:35:08;15.40;;;4.40;;
70838;SDS011;58464;52.298;4.852;2023-07-16T10:37:34;14.60;;;3.95;;
70838;SDS011;58464;52.298;4.852;2023-07-16T10:39:59;16.15;;;4.22;;
70838;SDS011;58464;52.298;4.852;2023-07-16T10:42:27;15.02;;;4.80;;
70838;SDS011;58464;52.298;4.852;2023-07-16T10:44:59;15.88;;;3.80;;
70838;SDS011;58464;52.298;4.852;2023-07-16T10:47:29;11.90;;;4.40;;
70838;SDS011;58464;52.298;4.852;2023-07-16T10:49:55;11.18;;;3.85;;
70838;SDS011;58464;52.298;4.852;2023-07-16T10:52:22;19.13;;;4.50;;
70838;SDS011;58464;52.298;4.852;2023-07-16T10:54:48;13.23;;;3.80;;
70838;SDS011;58464;52.298;4.852;2023-07-16T10:57:14;7.90;;;3.13;;
70838;SDS011;58464;52.298;4.852;2023-07-16T10:59:41;10.23;;;3.58;;
70838;SDS011;58464;52.298;4.852;2023-07-16T11:02:12;11.98;;;4.00;;
70838;SDS011;58464;52.298;4.852;2023-07-16T11:04:38;12.55;;;2.88;;
70838;SDS011;58464;52.298;4.852;2023-07-16T11:07:04;6.88;;;2.15;;
70838;SDS011;58464;52.298;4.852;2023-07-16T11:09:29;6.85;;;2.40;;
70838;SDS011;58464;52.298;4.852;2023-07-16T11:11:54;9.23;;;2.53;;
70838;SDS011;58464;52.298;4.852;2023-07-16T11:14:21;7.97;;;2.75;;
70838;SDS011;58464;52.298;4.852;2023-07-16T11:16:46;11.60;;;3.13;;
70838;SDS011;58464;52.298;4.852;2023-07-16T11:19:12;9.95;;;2.92;;
70838;SDS011;58464;52.298;4.852;2023-07-16T11:21:37;10.63;;;2.80;;
70838;SDS011;58464;52.298;4.852;2023-07-16T11:24:09;12.38;;;2.63;;
70838;SDS011;58464;52.298;4.852;2023-07-16T11:26:34;17.23;;;3.13;;
70838;SDS011;58464;52.298;4.852;2023-07-16T11:29:00;11.57;;;2.13;;
70838;SDS011;58464;52.298;4.852;2023-07-16T11:31:26;27.37;;;3.23;;
70838;SDS011;58464;52.298;4.852;2023-07-16T11:33:51;7.68;;;2.08;;
70838;SDS011;58464;52.298;4.852;2023-07-16T11:36:16;12.32;;;2.53;;
70838;SDS011;58464;52.298;4.852;2023-07-16T11:38:41;9.60;;;2.23;;
70838;SDS011;58464;52.298;4.852;2023-07-16T11:41:07;7.13;;;2.25;;
70838;SDS011;58464;52.298;4.852;2023-07-16T11:43:35;10.18;;;3.15;;
70838;SDS011;58464;52.298;4.852;2023-07-16T11:46:02;8.82;;;2.25;;
70838;SDS011;58464;52.298;4.852;2023-07-16T11:48:27;5.75;;;1.88;;
70838;SDS011;58464;52.298;4.852;2023-07-16T11:50:52;9.60;;;2.37;;
70838;SDS011;58464;52.298;4.852;2023-07-16T11:53:18;12.40;;;2.38;;
70838;SDS011;58464;52.298;4.852;2023-07-16T11:55:43;10.98;;;2.80;;
70838;SDS011;58464;52.298;4.852;2023-07-16T11:58:08;10.80;;;1.90;;
70838;SDS011;58464;52.298;4.852;2023-07-16T12:00:34;7.55;;;2.22;;
70838;SDS011;58464;52.298;4.852;2023-07-16T12:02:59;7.30;;;1.70;;
70838;SDS011;58464;52.298;4.852;2023-07-16T12:05:24;12.27;;;2.85;;
70838;SDS011;58464;52.298;4.852;2023-07-16T12:07:51;9.07;;;2.17;;
70838;SDS011;58464;52.298;4.852;2023-07-16T12:10:16;13.85;;;2.35;;
70838;SDS011;58464;52.298;4.852;2023-07-16T12:12:42;14.30;;;2.20;;
70838;SDS011;58464;52.298;4.852;2023-07-16T12:15:07;14.63;;;3.13;;
70838;SDS011;58464;52.298;4.852;2023-07-16T12:17:33;12.43;;;3.03;;
70838;SDS011;58464;52.298;4.852;2023-07-16T12:19:59;14.18;;;3.22;;
70838;SDS011;58464;52.298;4.852;2023-07-16T12:22:24;15.30;;;2.72;;
70838;SDS011;58464;52.298;4.852;2023-07-16T12:24:50;18.38;;;2.47;;
70838;SDS011;58464;52.298;4.852;2023-07-16T12:27:15;12.73;;;3.08;;
70838;SDS011;58464;52.298;4.852;2023-07-16T12:29:41;17.92;;;3.35;;
70838;SDS011;58464;52.298;4.852;2023-07-16T12:32:07;12.23;;;2.17;;
70838;SDS011;58464;52.298;4.852;2023-07-16T12:34:33;10.88;;;2.08;;
70838;SDS011;58464;52.298;4.852;2023-07-16T12:36:58;7.97;;;2.50;;
70838;SDS011;58464;52.298;4.852;2023-07-16T12:39:24;11.93;;;2.55;;
70838;SDS011;58464;52.298;4.852;2023-07-16T12:41:49;12.68;;;2.00;;
70838;SDS011;58464;52.298;4.852;2023-07-16T12:44:14;12.68;;;2.13;;
70838;SDS011;58464;52.298;4.852;2023-07-16T12:46:40;10.48;;;2.40;;
70838;SDS011;58464;52.298;4.852;2023-07-16T12:49:05;15.85;;;3.33;;
70838;SDS011;58464;52.298;4.852;2023-07-16T12:51:30;13.70;;;4.60;;
70838;SDS011;58464;52.298;4.852;2023-07-16T12:53:56;19.73;;;3.33;;
70838;SDS011;58464;52.298;4.852;2023-07-16T12:56:21;11.23;;;2.67;;
70838;SDS011;58464;52.298;4.852;2023-07-16T12:58:47;11.10;;;3.22;;
70838;SDS011;58464;52.298;4.852;2023-07-16T13:01:12;12.85;;;3.05;;
70838;SDS011;58464;52.298;4.852;2023-07-16T13:03:38;9.25;;;2.60;;
70838;SDS011;58464;52.298;4.852;2023-07-16T13:06:03;13.13;;;3.13;;
70838;SDS011;58464;52.298;4.852;2023-07-16T13:08:30;17.35;;;3.15;;
70838;SDS011;58464;52.298;4.852;2023-07-16T13:10:55;13.32;;;2.75;;
70838;SDS011;58464;52.298;4.852;2023-07-16T13:13:21;15.63;;;3.33;;
70838;SDS011;58464;52.298;4.852;2023-07-16T13:15:46;8.38;;;1.98;;
70838;SDS011;58464;52.298;4.852;2023-07-16T13:18:11;10.20;;;2.50;;
70838;SDS011;58464;52.298;4.852;2023-07-16T13:20:38;13.13;;;2.88;;
70838;SDS011;58464;52.298;4.852;2023-07-16T13:23:04;15.13;;;3.08;;
70838;SDS011;58464;52.298;4.852;2023-07-16T13:25:29;17.45;;;3.47;;
70838;SDS011;58464;52.298;4.852;2023-07-16T13:27:55;14.88;;;3.20;;
70838;SDS011;58464;52.298;4.852;2023-07-16T13:30:20;9.68;;;2.35;;
70838;SDS011;58464;52.298;4.852;2023-07-16T13:32:46;10.70;;;2.75;;
70838;SDS011;58464;52.298;4.852;2023-07-16T13:35:13;11.10;;;1.73;;
70838;SDS011;58464;52.298;4.852;2023-07-16T13:37:40;8.45;;;1.95;;
70838;SDS011;58464;52.298;4.852;2023-07-16T13:40:06;11.77;;;2.50;;
70838;SDS011;58464;52.298;4.852;2023-07-16T13:42:32;13.93;;;2.67;;
70838;SDS011;58464;52.298;4.852;2023-07-16T13:44:57;15.52;;;3.13;;
70838;SDS011;58464;52.298;4.852;2023-07-16T13:47:23;6.38;;;2.38;;
70838;SDS011;58464;52.298;4.852;2023-07-16T13:49:48;12.68;;;2.03;;
70838;SDS011;58464;52.298;4.852;2023-07-16T13:52:13;14.00;;;2.42;;
70838;SDS011;58464;52.298;4.852;2023-07-16T13:54:39;15.67;;;2.93;;
70838;SDS011;58464;52.298;4.852;2023-07-16T13:57:04;8.57;;;2.50;;
70838;SDS011;58464;52.298;4.852;2023-07-16T13:59:29;12.85;;;3.10;;
70838;SDS011;58464;52.298;4.852;2023-07-16T14:02:01;8.93;;;2.37;;
70838;SDS011;58464;52.298;4.852;2023-07-16T14:04:28;16.60;;;3.13;;
70838;SDS011;58464;52.298;4.852;2023-07-16T14:06:53;12.30;;;3.42;;
70838;SDS011;58464;52.298;4.852;2023-07-16T14:09:18;14.05;;;3.08;;
70838;SDS011;58464;52.298;4.852;2023-07-16T14:11:47;11.32;;;3.10;;
70838;SDS011;58464;52.298;4.852;2023-07-16T14:14:15;15.52;;;3.35;;
70838;SDS011;58464;52.298;4.852;2023-07-16T14:16:40;15.52;;;2.70;;
70838;SDS011;58464;52.298;4.852;2023-07-16T14:19:05;16.88;;;3.90;;
70838;SDS011;58464;52.298;4.852;2023-07-16T14:21:31;9.18;;;2.15;;
70838;SDS011;58464;52.298;4.852;2023-07-16T14:23:56;11.00;;;2.55;;
70838;SDS011;58464;52.298;4.852;2023-07-16T14:26:21;8.40;;;2.13;;
70838;SDS011;58464;52.298;4.852;2023-07-16T14:28:47;18.90;;;3.23;;
70838;SDS011;58464;52.298;4.852;2023-07-16T14:31:12;11.37;;;3.33;;